Time;durP1;ratioP1;P1;durP2;ratioP2;P2;SDS_P1;SDS_P2;PMS_P1;PMS_P2;Temp;Humidity;BMP_temperature;BMP_pressure;BME280_temperature;BME280_humidity;BME280_pressure;Samples;Min_cycle;Max_cycle;Signal;HPM_P1;HPM_P2
2023/01/08 00:01:50;;;;;;;13.00;8.97;;;9.60;75.10;;;;;;5041012;28;20466;-65
2023/01/08 00:04:17;;;;;;;13.53;8.77;;;9.60;75.20;;;;;;5041220;28;20501;-65
2023/01/08 00:06:45;;;;;;;12.53;8.73;;;9.60;75.20;;;;;;5040908;28;20541;-65
2023/01/08 00:09:13;;;;;;;11.87;8.50;;;9.60;75.20;;;;;;5040731;28;20504;-66
2023/01/08 00:11:43;;;;;;;11.40;8.10;;;9.70;75.30;;;;;;5040895;28;20462;-66
2023/01/08 00:14:11;;;;;;;13.07;8.03;;;9.70;75.20;;;;;;5042004;28;20459;-66
2023/01/08 00:16:40;;;;;;;12.23;8.40;;;9.70;75.30;;;;;;5041630;28;20460;-65
2023/01/08 00:19:09;;;;;;;11.77;8.17;;;9.70;75.30;;;;;;5041033;28;20493;-64
2023/01/08 00:21:36;;;;;;;10.67;7.40;;;9.80;75.30;;;;;;5039588;28;20463;-64
2023/01/08 00:24:05;;;;;;;10.37;7.13;;;9.80;75.30;;;;;;5041165;28;20517;-66
2023/01/08 00:26:33;;;;;;;12.83;7.27;;;9.80;75.30;;;;;;5041447;28;20486;-66
2023/01/08 00:29:01;;;;;;;12.10;7.97;;;9.80;75.30;;;;;;5055323;28;20535;-66
2023/01/08 00:31:29;;;;;;;11.33;7.60;;;9.80;75.30;;;;;;5040307;28;20462;-66
2023/01/08 00:33:58;;;;;;;12.20;7.60;;;9.80;75.30;;;;;;5041710;28;20513;-66
2023/01/08 00:36:26;;;;;;;11.20;7.50;;;9.80;75.40;;;;;;5040261;28;20483;-67
2023/01/08 00:38:54;;;;;;;13.67;7.73;;;9.80;75.40;;;;;;5041468;28;20952;-66
2023/01/08 00:41:22;;;;;;;10.73;7.27;;;9.90;75.40;;;;;;5039598;28;20459;-63
2023/01/08 00:43:50;;;;;;;10.00;6.53;;;9.90;75.40;;;;;;5043564;28;20508;-63
2023/01/08 00:46:18;;;;;;;11.30;7.53;;;9.90;75.30;;;;;;5039720;28;20544;-64
2023/01/08 00:48:46;;;;;;;9.83;6.20;;;9.80;75.30;;;;;;5040491;28;20461;-66
2023/01/08 00:51:15;;;;;;;12.13;7.33;;;9.80;75.30;;;;;;5038453;28;21000;-66
2023/01/08 00:53:43;;;;;;;14.80;8.53;;;9.80;75.30;;;;;;5041041;28;20455;-66
2023/01/08 00:56:11;;;;;;;11.23;6.53;;;9.80;75.30;;;;;;5040552;28;20479;-66
2023/01/08 00:58:39;;;;;;;9.10;6.60;;;9.80;75.30;;;;;;5044520;28;20577;-66
2023/01/08 01:01:11;;;;;;;10.38;6.82;;;9.80;75.30;;;;;;5044969;28;20465;-66
2023/01/08 01:03:39;;;;;;;12.47;8.13;;;9.90;75.40;;;;;;5046657;28;20209;-66
2023/01/08 01:06:08;;;;;;;15.40;11.43;;;9.90;75.30;;;;;;5044125;28;20925;-66
2023/01/08 01:08:37;;;;;;;13.50;9.53;;;9.90;75.30;;;;;;5045042;28;20619;-65
2023/01/08 01:11:09;;;;;;;9.87;7.40;;;9.90;75.30;;;;;;5045427;28;20459;-66
2023/01/08 01:13:37;;;;;;;11.00;7.67;;;9.90;75.10;;;;;;5045479;28;20442;-65
2023/01/08 01:16:05;;;;;;;12.77;7.23;;;9.90;75.10;;;;;;5045093;28;20895;-65
2023/01/08 01:18:33;;;;;;;10.70;7.27;;;9.80;75.10;;;;;;5043013;28;20474;-66
2023/01/08 01:21:01;;;;;;;9.83;6.83;;;9.80;75.20;;;;;;5043128;28;20463;-66
2023/01/08 01:23:29;;;;;;;10.47;6.70;;;9.80;75.30;;;;;;5042843;28;20501;-65
2023/01/08 01:25:58;;;;;;;10.17;6.60;;;9.80;75.40;;;;;;5059180;28;21089;-66
2023/01/08 01:28:26;;;;;;;10.67;6.73;;;9.90;75.30;;;;;;5045938;28;20459;-66
2023/01/08 01:30:55;;;;;;;15.50;7.03;;;9.90;75.30;;;;;;5044326;28;20463;-65
2023/01/08 01:33:23;;;;;;;10.83;6.90;;;9.90;75.30;;;;;;5046475;28;20455;-65
2023/01/08 01:35:59;;;;;;;12.50;7.27;;;9.90;75.30;;;;;;5047595;28;21031;-65
2023/01/08 01:38:27;;;;;;;11.03;7.10;;;10.00;75.30;;;;;;5048729;28;20450;-65
2023/01/08 01:40:55;;;;;;;10.43;7.17;;;10.00;75.30;;;;;;5043818;28;20947;-66
2023/01/08 01:43:36;;;;;;;12.10;6.23;;;10.00;75.30;;;;;;5044784;28;20944;-65
2023/01/08 01:46:06;;;;;;;10.23;6.40;;;10.00;75.30;;;;;;5045864;28;20513;-66
2023/01/08 01:48:34;;;;;;;12.30;6.40;;;10.00;75.10;;;;;;5045734;28;20459;-65
2023/01/08 01:51:02;;;;;;;8.73;6.33;;;10.00;75.10;;;;;;5043385;28;20494;-66
2023/01/08 01:53:34;;;;;;;9.70;6.53;;;10.00;75.10;;;;;;5045173;28;20450;-66
2023/01/08 01:56:04;;;;;;;8.83;6.00;;;10.10;75.10;;;;;;5044557;28;20479;-66
2023/01/08 01:58:32;;;;;;;8.60;6.27;;;10.10;75.00;;;;;;5044990;28;20458;-65
2023/01/08 02:01:06;;;;;;;9.70;6.27;;;10.10;75.00;;;;;;5043998;28;20505;-65
2023/01/08 02:03:36;;;;;;;12.37;6.33;;;10.10;74.90;;;;;;5044192;28;20459;-66
2023/01/08 02:06:15;;;;;;;11.27;6.40;;;10.10;74.90;;;;;;5042453;28;20475;-65
2023/01/08 02:08:56;;;;;;;9.93;6.50;;;10.10;75.00;;;;;;5042955;28;20509;-66
2023/01/08 02:11:30;;;;;;;9.10;6.00;;;10.10;75.00;;;;;;5042894;28;20509;-65
2023/01/08 02:14:04;;;;;;;10.43;6.47;;;10.10;75.00;;;;;;5043899;28;20439;-66
2023/01/08 02:16:40;;;;;;;8.57;6.20;;;10.10;75.00;;;;;;5043063;28;20478;-65
2023/01/08 02:19:18;;;;;;;9.17;5.80;;;10.10;75.00;;;;;;5042472;28;20557;-66
2023/01/08 02:21:58;;;;;;;8.93;5.90;;;10.10;74.90;;;;;;5042559;28;20492;-65
2023/01/08 02:24:36;;;;;;;11.23;6.50;;;10.10;74.90;;;;;;5043037;28;20476;-65
2023/01/08 02:27:08;;;;;;;12.60;6.83;;;10.10;74.90;;;;;;5043335;28;20470;-65
2023/01/08 02:29:35;;;;;;;13.37;8.60;;;10.10;74.80;;;;;;5043339;28;20475;-66
2023/01/08 02:32:04;;;;;;;11.60;7.00;;;10.10;74.80;;;;;;5042105;28;20455;-66
2023/01/08 02:34:32;;;;;;;11.47;6.50;;;10.10;74.70;;;;;;5043746;28;21035;-66
2023/01/08 02:37:01;;;;;;;9.50;6.07;;;10.10;74.50;;;;;;5041730;28;20466;-66
2023/01/08 02:39:44;;;;;;;10.00;6.87;;;10.00;74.40;;;;;;5040870;28;20459;-65
2023/01/08 02:42:20;;;;;;;10.77;7.00;;;9.90;74.50;;;;;;5043602;28;20466;-66
2023/01/08 02:44:55;;;;;;;10.00;6.50;;;9.80;74.70;;;;;;5045323;28;20485;-65
2023/01/08 02:47:29;;;;;;;10.17;6.47;;;9.80;74.60;;;;;;5042013;28;20531;-65
2023/01/08 02:50:04;;;;;;;10.33;6.57;;;9.70;74.60;;;;;;5043155;28;20463;-65
2023/01/08 02:52:36;;;;;;;12.03;7.23;;;9.60;74.60;;;;;;5041128;28;20971;-64
2023/01/08 02:55:05;;;;;;;10.17;6.60;;;9.50;74.80;;;;;;5039661;28;20479;-66
2023/01/08 02:57:35;;;;;;;10.13;7.13;;;9.50;74.90;;;;;;5034891;28;20474;-65
2023/01/08 03:00:04;;;;;;;10.80;7.47;;;9.50;74.90;;;;;;5040965;28;20471;-64
2023/01/08 03:02:35;;;;;;;9.10;6.00;;;9.50;75.00;;;;;;5039916;28;20463;-63
2023/01/08 03:05:09;;;;;;;12.03;7.47;;;9.50;75.00;;;;;;5040439;28;20544;-66
2023/01/08 03:07:37;;;;;;;13.17;7.80;;;9.50;75.00;;;;;;5040660;28;20580;-66
2023/01/08 03:10:06;;;;;;;10.55;6.90;;;9.50;75.10;;;;;;5048024;28;20439;-66
2023/01/08 03:12:44;;;;;;;8.63;6.40;;;9.60;75.10;;;;;;5040032;28;20282;-63
2023/01/08 03:15:18;;;;;;;11.03;7.10;;;9.60;75.20;;;;;;5040957;28;20536;-66
2023/01/08 03:17:50;;;;;;;10.60;6.80;;;9.60;75.20;;;;;;5040207;28;20860;-63
2023/01/08 03:20:21;;;;;;;10.67;7.27;;;9.70;75.10;;;;;;5040702;28;20487;-66
2023/01/08 03:22:52;;;;;;;9.60;6.20;;;9.70;75.10;;;;;;5041122;28;20483;-65
2023/01/08 03:25:23;;;;;;;10.37;6.67;;;9.70;75.10;;;;;;5041635;28;20474;-65
2023/01/08 03:27:56;;;;;;;10.57;6.73;;;9.70;75.00;;;;;;5041979;28;20974;-65
2023/01/08 03:30:25;;;;;;;10.67;6.80;;;9.70;74.90;;;;;;5043357;28;20631;-65
2023/01/08 03:32:55;;;;;;;9.83;6.30;;;9.60;75.00;;;;;;5040518;28;20486;-65
2023/01/08 03:35:24;;;;;;;12.83;6.80;;;9.70;75.10;;;;;;5041649;28;20494;-65
2023/01/08 03:37:58;;;;;;;10.40;6.37;;;9.70;75.20;;;;;;5039951;28;20465;-64
2023/01/08 03:40:30;;;;;;;11.33;7.07;;;9.70;75.10;;;;;;5039193;28;20467;-65
2023/01/08 03:43:00;;;;;;;9.73;6.80;;;9.70;75.00;;;;;;5042025;28;20516;-63
2023/01/08 03:45:31;;;;;;;8.00;5.70;;;9.70;75.00;;;;;;5040458;28;20485;-65
2023/01/08 03:48:02;;;;;;;12.37;7.10;;;9.70;75.00;;;;;;5040829;28;20475;-65
2023/01/08 03:50:31;;;;;;;10.20;5.83;;;9.60;75.00;;;;;;5041634;28;20498;-65
2023/01/08 03:52:59;;;;;;;10.90;6.87;;;9.60;75.00;;;;;;5042085;28;20493;-65
2023/01/08 03:55:27;;;;;;;10.50;6.67;;;9.60;75.00;;;;;;5041382;28;20489;-64
2023/01/08 03:57:55;;;;;;;9.97;6.77;;;9.50;75.20;;;;;;5042207;28;20575;-65
2023/01/08 04:00:25;;;;;;;9.10;5.90;;;9.60;75.30;;;;;;5042118;28;20459;-65
2023/01/08 04:02:53;;;;;;;11.43;6.27;;;9.60;75.30;;;;;;5041406;28;20540;-66
2023/01/08 04:05:20;;;;;;;8.97;6.23;;;9.60;75.40;;;;;;5040006;28;20986;-65
2023/01/08 04:07:48;;;;;;;11.50;6.93;;;9.60;75.30;;;;;;5040978;28;20478;-65
2023/01/08 04:10:16;;;;;;;8.40;5.60;;;9.60;75.30;;;;;;5040496;28;20525;-65
2023/01/08 04:12:44;;;;;;;8.90;5.83;;;9.60;75.30;;;;;;5040366;28;20570;-64
2023/01/08 04:15:12;;;;;;;10.20;7.70;;;9.70;75.40;;;;;;5041431;28;20533;-64
2023/01/08 04:17:41;;;;;;;9.33;6.47;;;9.70;75.40;;;;;;5041595;28;20472;-65
2023/01/08 04:20:10;;;;;;;10.90;5.50;;;9.70;75.40;;;;;;5040032;28;20504;-65
2023/01/08 04:22:38;;;;;;;7.47;4.53;;;9.80;75.30;;;;;;5041649;28;21157;-65
2023/01/08 04:25:06;;;;;;;8.80;5.50;;;9.80;75.30;;;;;;5040306;28;20786;-66
2023/01/08 04:27:34;;;;;;;8.90;5.07;;;9.80;75.30;;;;;;5040807;28;20544;-66
2023/01/08 04:30:02;;;;;;;8.27;5.23;;;9.80;75.40;;;;;;5042119;28;20446;-65
2023/01/08 04:32:30;;;;;;;7.43;5.00;;;9.90;75.30;;;;;;5043095;28;20458;-65
2023/01/08 04:34:59;;;;;;;8.20;4.80;;;9.90;75.30;;;;;;5045990;28;20490;-65
2023/01/08 04:37:27;;;;;;;7.83;5.00;;;10.00;75.30;;;;;;5044788;28;20459;-65
2023/01/08 04:39:55;;;;;;;8.10;4.97;;;10.00;75.10;;;;;;5044825;28;20538;-65
2023/01/08 04:42:23;;;;;;;8.93;5.43;;;10.00;75.10;;;;;;5044794;28;20532;-64
2023/01/08 04:44:51;;;;;;;9.23;5.43;;;10.00;75.10;;;;;;5045616;28;20991;-65
2023/01/08 04:47:18;;;;;;;8.30;5.23;;;10.10;75.10;;;;;;5046064;28;20470;-65
2023/01/08 04:49:46;;;;;;;8.83;5.53;;;10.10;75.00;;;;;;5046684;28;20902;-65
2023/01/08 04:52:15;;;;;;;8.20;5.07;;;10.10;75.00;;;;;;5044823;28;20462;-65
2023/01/08 04:54:43;;;;;;;9.00;5.47;;;10.10;75.00;;;;;;5044442;28;20896;-65
2023/01/08 04:57:11;;;;;;;9.30;5.63;;;10.10;74.90;;;;;;5044428;28;20540;-65
2023/01/08 04:59:39;;;;;;;8.17;5.33;;;10.10;74.90;;;;;;5045110;28;20490;-65
2023/01/08 05:02:07;;;;;;;11.43;5.80;;;10.10;74.90;;;;;;5044603;28;20463;-65
2023/01/08 05:04:35;;;;;;;7.20;4.87;;;10.10;74.90;;;;;;5044793;28;20482;-65
2023/01/08 05:07:04;;;;;;;8.60;6.00;;;10.10;74.90;;;;;;5043031;28;20544;-65
2023/01/08 05:09:33;;;;;;;7.87;4.93;;;10.10;75.00;;;;;;5042414;28;20474;-64
2023/01/08 05:12:01;;;;;;;8.60;5.00;;;10.10;74.90;;;;;;5044988;28;21056;-65
2023/01/08 05:14:28;;;;;;;7.77;5.10;;;10.10;74.90;;;;;;5043590;28;20490;-65
2023/01/08 05:16:56;;;;;;;8.67;4.77;;;10.10;74.90;;;;;;5042996;28;20459;-65
2023/01/08 05:19:24;;;;;;;9.43;4.60;;;10.10;74.90;;;;;;5043455;28;20451;-65
2023/01/08 05:21:52;;;;;;;7.77;5.03;;;10.10;74.90;;;;;;5043796;28;20455;-64
2023/01/08 05:24:20;;;;;;;8.17;4.83;;;10.10;74.80;;;;;;5044999;28;20536;-66
2023/01/08 05:26:49;;;;;;;7.93;4.57;;;10.10;74.90;;;;;;5042498;28;20847;-66
2023/01/08 05:29:17;;;;;;;8.67;5.67;;;10.00;74.90;;;;;;5043188;28;20482;-66
2023/01/08 05:31:46;;;;;;;8.23;4.97;;;10.00;74.90;;;;;;5043098;28;20513;-65
2023/01/08 05:34:14;;;;;;;8.30;5.10;;;10.10;75.00;;;;;;5044579;28;20463;-64
2023/01/08 05:36:42;;;;;;;9.53;5.30;;;10.10;74.80;;;;;;5043281;28;20513;-65
2023/01/08 05:39:09;;;;;;;9.40;4.90;;;10.10;75.00;;;;;;5044255;28;20512;-66
2023/01/08 05:41:38;;;;;;;8.40;5.07;;;10.10;75.00;;;;;;5043634;28;20554;-66
2023/01/08 05:44:07;;;;;;;8.17;4.17;;;10.10;75.00;;;;;;5044860;28;20566;-65
2023/01/08 05:46:35;;;;;;;7.27;4.50;;;10.10;75.00;;;;;;5043004;28;20478;-65
2023/01/08 05:49:03;;;;;;;8.43;5.20;;;10.20;74.90;;;;;;5043427;28;20584;-65
2023/01/08 05:51:30;;;;;;;8.50;4.60;;;10.10;74.80;;;;;;5044131;28;20467;-66
2023/01/08 05:53:58;;;;;;;10.10;4.73;;;10.10;74.80;;;;;;5044799;28;20451;-66
2023/01/08 05:56:26;;;;;;;9.60;4.67;;;10.10;74.90;;;;;;5042959;28;20533;-66
2023/01/08 05:58:54;;;;;;;7.63;4.90;;;10.10;75.00;;;;;;5043942;28;20467;-66
2023/01/08 06:01:24;;;;;;;7.30;4.50;;;10.10;75.00;;;;;;5042236;28;20469;-65
2023/01/08 06:03:54;;;;;;;7.87;5.10;;;10.10;75.00;;;;;;5042320;28;20502;-65
2023/01/08 06:06:22;;;;;;;8.03;5.43;;;10.10;75.10;;;;;;5043604;28;20486;-65
2023/01/08 06:08:50;;;;;;;7.80;4.90;;;10.10;75.10;;;;;;5044081;28;20521;-66
2023/01/08 06:11:18;;;;;;;8.30;5.20;;;10.20;75.10;;;;;;5044646;28;20540;-65
2023/01/08 06:13:46;;;;;;;10.30;5.40;;;10.20;75.10;;;;;;5044017;28;20975;-66
2023/01/08 06:16:16;;;;;;;8.10;5.07;;;10.20;75.10;;;;;;5058501;28;20519;-65
2023/01/08 06:18:45;;;;;;;7.00;4.70;;;10.10;75.10;;;;;;5042439;28;20451;-65
2023/01/08 06:21:13;;;;;;;11.13;5.03;;;10.10;75.30;;;;;;5043615;28;20455;-65
2023/01/08 06:23:41;;;;;;;11.73;5.10;;;10.10;75.30;;;;;;5042542;28;21336;-65
2023/01/08 06:26:09;;;;;;;7.60;4.57;;;10.10;75.40;;;;;;5041708;28;20483;-65
2023/01/08 06:28:37;;;;;;;7.47;4.97;;;10.10;75.40;;;;;;5042290;28;20964;-64
2023/01/08 06:31:05;;;;;;;8.73;5.40;;;10.10;75.40;;;;;;5043801;28;20479;-65
2023/01/08 06:33:33;;;;;;;7.33;4.60;;;10.10;75.50;;;;;;5041882;28;20467;-65
2023/01/08 06:36:03;;;;;;;7.10;4.60;;;10.10;75.50;;;;;;5042665;28;20490;-66
2023/01/08 06:38:32;;;;;;;8.67;5.37;;;10.10;75.50;;;;;;5042137;28;20459;-64
2023/01/08 06:41:03;;;;;;;7.27;4.70;;;10.00;75.60;;;;;;5041905;28;20569;-66
2023/01/08 06:43:32;;;;;;;7.83;4.83;;;10.10;75.60;;;;;;5042554;28;21347;-64
2023/01/08 06:46:03;;;;;;;7.60;5.13;;;10.00;75.60;;;;;;5041122;28;20483;-65
2023/01/08 06:48:31;;;;;;;8.57;5.40;;;10.00;75.70;;;;;;5041556;28;20478;-65
2023/01/08 06:50:59;;;;;;;8.67;5.10;;;10.00;75.70;;;;;;5043523;28;20479;-65
2023/01/08 06:53:29;;;;;;;8.93;5.37;;;10.00;75.80;;;;;;5040322;28;20470;-65
2023/01/08 06:55:57;;;;;;;8.40;5.23;;;10.00;75.80;;;;;;5039944;28;20595;-65
2023/01/08 06:58:26;;;;;;;8.07;4.57;;;10.00;75.80;;;;;;5042098;28;20475;-65
2023/01/08 07:00:54;;;;;;;9.00;5.77;;;10.00;75.80;;;;;;5041435;28;20463;-65
2023/01/08 07:03:22;;;;;;;8.40;5.33;;;10.10;75.90;;;;;;5043091;28;20537;-65
2023/01/08 07:05:50;;;;;;;8.00;4.70;;;10.00;75.90;;;;;;5042517;28;21406;-65
2023/01/08 07:08:19;;;;;;;7.17;4.90;;;10.00;75.90;;;;;;5042446;28;20872;-65
2023/01/08 07:10:48;;;;;;;9.23;4.73;;;10.00;75.90;;;;;;5041351;28;20471;-63
2023/01/08 07:13:16;;;;;;;8.20;5.30;;;10.00;76.00;;;;;;5044017;28;20829;-65
2023/01/08 07:15:44;;;;;;;9.67;5.10;;;10.00;76.00;;;;;;5042661;28;20486;-64
2023/01/08 07:18:12;;;;;;;9.23;5.23;;;10.00;76.00;;;;;;5043251;28;20463;-64
2023/01/08 07:20:40;;;;;;;9.67;5.47;;;10.00;76.00;;;;;;5043197;28;20450;-64
2023/01/08 07:23:10;;;;;;;7.40;4.60;;;10.00;76.10;;;;;;5042689;28;20452;-64
2023/01/08 07:25:38;;;;;;;8.97;5.27;;;10.00;76.00;;;;;;5041911;28;20513;-65
2023/01/08 07:28:11;;;;;;;8.27;5.53;;;10.00;76.10;;;;;;5042428;28;20471;-64
2023/01/08 07:30:39;;;;;;;6.47;4.70;;;10.00;76.10;;;;;;5040427;28;20867;-65
2023/01/08 07:33:07;;;;;;;9.23;5.17;;;10.00;76.10;;;;;;5041104;28;20471;-64
2023/01/08 07:35:35;;;;;;;7.77;5.00;;;9.90;76.20;;;;;;5042944;28;20514;-64
2023/01/08 07:38:03;;;;;;;10.13;5.70;;;10.00;76.30;;;;;;5041699;28;20549;-64
2023/01/08 07:40:31;;;;;;;8.93;5.70;;;10.00;76.30;;;;;;5041183;28;20462;-63
2023/01/08 07:43:00;;;;;;;8.80;6.17;;;10.00;76.30;;;;;;5041609;28;21121;-65
2023/01/08 07:45:30;;;;;;;9.07;5.70;;;10.00;76.40;;;;;;5042651;28;20556;-65
2023/01/08 07:47:59;;;;;;;8.77;5.53;;;10.00;76.40;;;;;;5041142;28;20455;-65
2023/01/08 07:50:27;;;;;;;8.83;5.63;;;10.00;76.50;;;;;;5043244;28;21075;-65
2023/01/08 07:52:57;;;;;;;9.07;6.17;;;10.00;76.50;;;;;;5039970;28;20489;-65
2023/01/08 07:55:25;;;;;;;9.27;5.20;;;10.00;76.50;;;;;;5039749;28;21076;-65
2023/01/08 07:57:53;;;;;;;10.03;6.10;;;10.00;76.50;;;;;;5040168;28;20479;-64
2023/01/08 08:00:21;;;;;;;8.13;5.60;;;10.00;76.50;;;;;;5039541;28;20818;-65
2023/01/08 08:02:50;;;;;;;10.03;5.17;;;10.00;76.50;;;;;;5041494;28;20580;-65
2023/01/08 08:05:18;;;;;;;8.40;4.90;;;10.00;76.70;;;;;;5043352;28;20493;-65
2023/01/08 08:07:46;;;;;;;9.83;4.97;;;10.00;76.70;;;;;;5044135;28;20470;-66
2023/01/08 08:10:14;;;;;;;9.10;5.90;;;10.00;76.80;;;;;;5047032;28;20528;-66
2023/01/08 08:12:44;;;;;;;7.97;5.30;;;10.00;76.90;;;;;;5044805;28;20467;-64
2023/01/08 08:15:12;;;;;;;9.43;5.53;;;10.10;76.90;;;;;;5045153;28;20898;-66
2023/01/08 08:17:43;;;;;;;8.87;6.00;;;10.10;76.80;;;;;;5045472;28;20974;-64
2023/01/08 08:20:14;;;;;;;8.73;5.20;;;10.10;76.90;;;;;;5045696;28;20485;-64
2023/01/08 08:22:42;;;;;;;10.43;6.67;;;10.10;76.90;;;;;;5045529;28;20459;-64
2023/01/08 08:25:11;;;;;;;10.80;6.30;;;10.10;76.90;;;;;;5045347;28;20487;-66
2023/01/08 08:27:39;;;;;;;9.27;5.87;;;10.10;77.00;;;;;;5044675;28;20476;-64
2023/01/08 08:30:08;;;;;;;10.70;6.80;;;10.10;77.00;;;;;;5045305;28;20482;-67
2023/01/08 08:32:36;;;;;;;12.17;6.23;;;10.10;77.00;;;;;;5041009;28;20454;-65
2023/01/08 08:35:05;;;;;;;10.20;5.67;;;10.00;77.00;;;;;;5041829;28;20486;-66
2023/01/08 08:37:34;;;;;;;13.60;7.27;;;10.00;77.10;;;;;;5044656;28;20470;-66
2023/01/08 08:40:02;;;;;;;11.70;6.30;;;10.10;77.20;;;;;;5045182;28;20960;-66
2023/01/08 08:42:30;;;;;;;16.13;10.20;;;10.10;77.20;;;;;;5045724;28;20460;-67
2023/01/08 08:44:58;;;;;;;14.77;7.33;;;10.10;77.30;;;;;;5044526;28;20925;-66
2023/01/08 08:47:25;;;;;;;12.80;7.90;;;10.10;77.20;;;;;;5044829;28;20512;-67
2023/01/08 08:49:53;;;;;;;17.53;9.57;;;10.10;77.20;;;;;;5045591;28;20463;-66
2023/01/08 08:52:21;;;;;;;12.83;8.00;;;10.20;77.30;;;;;;5048141;28;21138;-65
2023/01/08 08:54:50;;;;;;;9.17;5.70;;;10.20;77.40;;;;;;5044042;28;20540;-65
2023/01/08 08:57:18;;;;;;;16.07;10.07;;;10.20;77.30;;;;;;5045710;28;20471;-65
2023/01/08 08:59:46;;;;;;;12.40;7.47;;;10.20;77.30;;;;;;5046125;28;20487;-65
2023/01/08 09:02:14;;;;;;;10.93;6.70;;;10.20;77.30;;;;;;5043439;28;21051;-64
2023/01/08 09:04:42;;;;;;;9.70;6.20;;;10.20;77.40;;;;;;5047292;28;20475;-66
2023/01/08 09:07:10;;;;;;;9.40;5.50;;;10.20;77.40;;;;;;5045908;28;20451;-66
2023/01/08 09:09:38;;;;;;;8.33;5.50;;;10.20;77.40;;;;;;5044711;28;20841;-66
2023/01/08 09:12:07;;;;;;;7.90;5.27;;;10.20;77.50;;;;;;5044887;28;20479;-66
2023/01/08 09:14:35;;;;;;;11.00;7.10;;;10.20;77.50;;;;;;5044532;28;20484;-66
2023/01/08 09:17:03;;;;;;;8.13;5.50;;;10.20;77.60;;;;;;5043566;28;20804;-66
2023/01/08 09:19:31;;;;;;;14.10;7.17;;;10.20;77.70;;;;;;5042410;28;20471;-67
2023/01/08 09:21:59;;;;;;;10.47;4.93;;;10.20;77.80;;;;;;5042990;28;20517;-66
2023/01/08 09:24:27;;;;;;;6.70;4.37;;;10.20;77.80;;;;;;5042387;28;20466;-66
2023/01/08 09:26:55;;;;;;;7.63;4.20;;;10.20;77.90;;;;;;5043067;28;20458;-68
2023/01/08 09:29:24;;;;;;;7.67;4.03;;;10.20;77.90;;;;;;5042046;28;20552;-65
2023/01/08 09:31:52;;;;;;;8.20;4.60;;;10.20;78.00;;;;;;5041950;28;20483;-66
2023/01/08 09:34:20;;;;;;;6.83;4.00;;;10.20;78.10;;;;;;5043649;28;20447;-66
2023/01/08 09:36:48;;;;;;;6.00;3.80;;;10.20;78.20;;;;;;5043526;28;20459;-66
2023/01/08 09:39:15;;;;;;;9.33;3.67;;;10.30;78.30;;;;;;5041497;28;20475;-64
2023/01/08 09:41:46;;;;;;;6.40;3.57;;;10.20;78.30;;;;;;5045135;28;20477;-66
2023/01/08 09:44:17;;;;;;;7.50;4.10;;;10.30;78.40;;;;;;5044342;28;20508;-65
2023/01/08 09:46:47;;;;;;;6.53;3.93;;;10.30;78.50;;;;;;5043479;28;20508;-65
2023/01/08 09:49:20;;;;;;;6.67;3.97;;;10.20;78.50;;;;;;5044346;28;20518;-64
2023/01/08 09:51:48;;;;;;;5.97;3.40;;;10.30;78.60;;;;;;5044359;28;20486;-66
2023/01/08 09:54:17;;;;;;;7.53;4.60;;;10.30;78.70;;;;;;5044398;28;20956;-66
2023/01/08 09:56:45;;;;;;;8.87;4.00;;;10.30;78.80;;;;;;5043765;28;20528;-66
2023/01/08 09:59:17;;;;;;;8.30;4.00;;;10.30;78.80;;;;;;5043700;28;20871;-66
2023/01/08 10:01:47;;;;;;;6.10;3.80;;;10.30;79.00;;;;;;5041417;28;21264;-66
2023/01/08 10:04:18;;;;;;;7.00;4.10;;;10.30;79.10;;;;;;5043711;28;20470;-66
2023/01/08 10:06:52;;;;;;;7.53;3.83;;;10.40;79.10;;;;;;5043711;28;20471;-66
2023/01/08 10:09:24;;;;;;;4.97;2.87;;;10.40;79.20;;;;;;5041872;28;20466;-66
2023/01/08 10:11:55;;;;;;;8.47;3.70;;;10.50;79.30;;;;;;5041760;28;20490;-64
2023/01/08 10:14:24;;;;;;;5.80;3.20;;;10.50;79.30;;;;;;5042435;28;20463;-66
2023/01/08 10:16:57;;;;;;;6.10;3.70;;;10.50;79.50;;;;;;5039860;28;20652;-65
2023/01/08 10:19:25;;;;;;;6.90;3.93;;;10.50;79.50;;;;;;5040317;28;20882;-65
2023/01/08 10:21:53;;;;;;;6.47;3.40;;;10.60;79.50;;;;;;5039048;28;20476;-65
2023/01/08 10:24:31;;;;;;;7.30;3.77;;;10.60;79.50;;;;;;5036964;28;20466;-64
2023/01/08 10:27:06;;;;;;;5.43;2.90;;;10.70;79.50;;;;;;5042898;28;20466;-64
2023/01/08 10:29:34;;;;;;;5.83;3.07;;;10.70;79.50;;;;;;5038488;28;21088;-64
2023/01/08 10:32:10;;;;;;;4.77;2.73;;;10.70;79.50;;;;;;5040708;28;20467;-64
2023/01/08 10:34:45;;;;;;;4.77;2.97;;;10.70;79.50;;;;;;5040319;28;20475;-66
2023/01/08 10:37:23;;;;;;;4.80;2.97;;;10.70;79.60;;;;;;5038638;28;20464;-65
2023/01/08 10:39:52;;;;;;;5.50;3.03;;;10.70;79.70;;;;;;5041465;28;20525;-65
2023/01/08 10:42:22;;;;;;;7.40;3.63;;;10.80;79.70;;;;;;5041886;28;20516;-64
2023/01/08 10:44:57;;;;;;;4.57;2.57;;;10.80;79.70;;;;;;5039525;28;20494;-65
2023/01/08 10:47:28;;;;;;;5.90;3.23;;;10.80;79.80;;;;;;5043039;28;20476;-65
2023/01/08 10:49:57;;;;;;;6.13;3.00;;;10.80;79.70;;;;;;5039861;28;20859;-65
2023/01/08 10:52:28;;;;;;;5.80;3.43;;;10.80;79.80;;;;;;5043164;28;20529;-65
2023/01/08 10:54:56;;;;;;;6.87;3.70;;;10.80;79.90;;;;;;5041195;28;20490;-65
2023/01/08 10:57:26;;;;;;;5.67;3.07;;;10.90;79.90;;;;;;5044443;28;20470;-65
2023/01/08 10:59:55;;;;;;;5.83;3.37;;;10.90;79.90;;;;;;5044506;28;20458;-65
2023/01/08 11:02:34;;;;;;;5.50;3.33;;;10.90;80.00;;;;;;5043428;28;20454;-65
2023/01/08 11:05:09;;;;;;;5.47;3.20;;;10.90;80.00;;;;;;5042966;28;20478;-63
2023/01/08 11:07:39;;;;;;;5.87;2.90;;;10.90;79.90;;;;;;5042559;28;20536;-65
2023/01/08 11:10:20;;;;;;;8.60;3.03;;;10.90;79.90;;;;;;5042311;28;20496;-65
2023/01/08 11:12:48;;;;;;;6.00;3.17;;;10.90;79.90;;;;;;5039833;28;20937;-65
2023/01/08 11:15:28;;;;;;;4.97;2.90;;;10.90;79.90;;;;;;5040293;28;20474;-65
2023/01/08 11:18:06;;;;;;;5.03;2.67;;;10.90;79.90;;;;;;5039524;28;20849;-64
2023/01/08 11:20:35;;;;;;;4.57;2.50;;;10.90;80.00;;;;;;5041087;28;20980;-67
2023/01/08 11:23:13;;;;;;;5.27;2.47;;;11.00;80.00;;;;;;5038971;28;21015;-65
2023/01/08 11:25:44;;;;;;;5.90;2.90;;;10.90;80.00;;;;;;5037792;28;20500;-65
2023/01/08 11:28:16;;;;;;;5.03;2.67;;;10.90;80.10;;;;;;5038692;28;20500;-66
2023/01/08 11:30:50;;;;;;;5.23;2.60;;;10.90;80.20;;;;;;5040567;28;21411;-66
2023/01/08 11:33:27;;;;;;;5.33;2.90;;;10.90;80.20;;;;;;5036423;28;20513;-66
2023/01/08 11:36:00;;;;;;;6.17;2.43;;;11.00;80.20;;;;;;5038405;28;20475;-66
2023/01/08 11:38:28;;;;;;;4.77;2.60;;;11.00;80.20;;;;;;5040903;28;20467;-66
2023/01/08 11:41:03;;;;;;;6.30;3.17;;;11.00;80.30;;;;;;5035878;28;20455;-66
2023/01/08 11:43:40;;;;;;;4.63;2.27;;;11.00;80.30;;;;;;5040044;28;20527;-67
2023/01/08 11:46:27;;;;;;;5.40;2.80;;;11.00;80.30;;;;;;5041703;28;21334;-67
2023/01/08 11:49:13;;;;;;;4.90;2.50;;;11.00;80.30;;;;;;5040333;28;20489;-66
2023/01/08 11:52:00;;;;;;;5.40;2.97;;;11.10;80.30;;;;;;5041600;28;20458;-67
2023/01/08 11:54:42;;;;;;;8.00;3.00;;;11.10;80.30;;;;;;5040090;28;20470;-69
2023/01/08 11:57:21;;;;;;;5.77;3.33;;;11.10;80.40;;;;;;5042463;28;20474;-67
2023/01/08 12:00:02;;;;;;;6.87;3.13;;;11.10;80.40;;;;;;5040330;28;20462;-68
2023/01/08 12:02:49;;;;;;;5.07;2.73;;;11.10;80.40;;;;;;5040867;28;20455;-68
2023/01/08 12:05:29;;;;;;;5.03;2.60;;;11.20;80.40;;;;;;5038938;28;20841;-69
2023/01/08 12:08:02;;;;;;;5.97;2.30;;;11.20;80.30;;;;;;5040190;28;20462;-68
2023/01/08 12:10:38;;;;;;;4.90;2.40;;;11.20;80.30;;;;;;5041716;28;20459;-67
2023/01/08 12:13:22;;;;;;;4.83;2.33;;;11.20;80.30;;;;;;5040435;28;20514;-68
2023/01/08 12:16:01;;;;;;;5.53;2.17;;;11.30;80.20;;;;;;5035624;28;21040;-67
2023/01/08 12:18:52;;;;;;;5.10;2.20;;;11.20;80.10;;;;;;5041824;28;20962;-67
2023/01/08 12:21:30;;;;;;;5.53;2.50;;;11.30;80.20;;;;;;5042696;28;20553;-67
2023/01/08 12:24:27;;;;;;;4.37;2.17;;;11.30;80.20;;;;;;5041645;28;20459;-67
2023/01/08 12:27:01;;;;;;;4.67;2.10;;;11.30;80.20;;;;;;5040111;28;20463;-67
2023/01/08 12:30:01;;;;;;;4.30;1.80;;;11.30;80.20;;;;;;5040499;28;20941;-67
2023/01/08 12:32:35;;;;;;;4.50;2.20;;;11.30;80.20;;;;;;5039087;28;21029;-68
2023/01/08 12:35:10;;;;;;;4.00;1.83;;;11.30;80.30;;;;;;5043205;28;20506;-68
2023/01/08 12:37:48;;;;;;;5.20;2.17;;;11.30;80.20;;;;;;5040218;28;20961;-68
2023/01/08 12:40:24;;;;;;;4.73;1.80;;;11.30;80.20;;;;;;5036117;28;20568;-68
2023/01/08 12:42:52;;;;;;;3.90;1.90;;;11.30;80.10;;;;;;5033976;28;20489;-69
2023/01/08 12:45:30;;;;;;;4.33;2.27;;;11.30;80.10;;;;;;5041433;28;20930;-69
2023/01/08 12:48:04;;;;;;;4.30;2.03;;;11.20;80.10;;;;;;5040364;28;20455;-68
2023/01/08 12:50:52;;;;;;;3.80;1.67;;;11.20;80.30;;;;;;5042120;28;20994;-72
2023/01/08 12:53:34;;;;;;;6.87;2.07;;;11.20;80.30;;;;;;5041408;28;21034;-69
2023/01/08 12:56:08;;;;;;;3.87;1.83;;;11.20;80.20;;;;;;5043206;28;20490;-68
2023/01/08 12:58:53;;;;;;;4.27;1.63;;;11.20;80.30;;;;;;5047245;28;21049;-69
2023/01/08 13:01:33;;;;;;;3.77;1.77;;;11.20;80.30;;;;;;5044049;28;20447;-69
2023/01/08 13:04:04;;;;;;;4.13;2.23;;;11.20;80.30;;;;;;5047926;28;20819;-68